createdAt,value
2018-06-13T00:03:15.467Z,0
2018-06-13T00:13:15.381Z,0
2018-06-13T00:23:15.509Z,0
2018-06-13T00:33:15.449Z,0
2018-06-13T00:43:28.095Z,0
2018-06-13T00:53:24.661Z,0
2018-06-13T01:03:15.594Z,0
2018-06-13T01:13:15.519Z,0
2018-06-13T01:23:15.559Z,0
2018-06-13T01:33:15.462Z,0
2018-06-13T01:43:15.444Z,0
2018-06-13T01:53:15.495Z,0
2018-06-13T02:03:15.469Z,0
2018-06-13T02:13:15.566Z,0
2018-06-13T02:23:15.502Z,0
2018-06-13T02:33:15.594Z,0
2018-06-13T02:43:15.599Z,0
2018-06-13T02:53:16.654Z,0
2018-06-13T03:03:15.567Z,0
2018-06-13T03:13:15.569Z,0
2018-06-13T03:23:15.577Z,0
2018-06-13T03:33:15.692Z,5
2018-06-13T03:43:15.638Z,5
2018-06-13T03:53:15.656Z,10
2018-06-13T04:03:15.674Z,15
2018-06-13T04:13:15.726Z,15
2018-06-13T04:23:15.756Z,20
2018-06-13T04:33:15.731Z,40
2018-06-13T04:43:15.697Z,45
2018-06-13T04:53:15.638Z,45
2018-06-13T05:03:15.713Z,65
2018-06-13T05:13:15.709Z,80
2018-06-13T05:23:15.863Z,65
2018-06-13T05:33:15.705Z,80
2018-06-13T05:43:15.771Z,90
2018-06-13T05:53:15.793Z,60
2018-06-13T06:03:15.877Z,85
2018-06-13T06:13:15.699Z,135
2018-06-13T06:23:15.836Z,135
2018-06-13T06:33:15.759Z,125
2018-06-13T06:43:15.886Z,140
2018-06-13T06:53:15.812Z,220
2018-06-13T07:03:15.930Z,255
2018-06-13T07:13:15.840Z,270
2018-06-13T07:23:15.825Z,245
2018-06-13T07:33:15.926Z,270
2018-06-13T07:43:16.007Z,135
2018-06-13T07:53:15.958Z,200
2018-06-13T08:03:16.499Z,180
2018-06-13T08:13:15.808Z,90
2018-06-13T08:23:17.235Z,55
2018-06-13T08:33:15.778Z,135
2018-06-13T08:43:15.777Z,115
2018-06-13T08:53:15.805Z,160
2018-06-13T09:03:15.815Z,315
2018-06-13T09:13:15.983Z,375
2018-06-13T09:23:15.915Z,380
2018-06-13T09:33:15.926Z,370
2018-06-13T09:43:15.948Z,335
2018-06-13T09:53:15.834Z,265
2018-06-13T10:03:15.919Z,265
2018-06-13T10:13:15.854Z,315
2018-06-13T10:23:16.013Z,255
2018-06-13T10:33:15.904Z,335
2018-06-13T10:43:15.822Z,315
2018-06-13T10:53:15.899Z,325
2018-06-13T11:03:15.831Z,200
2018-06-13T11:13:15.856Z,200
2018-06-13T11:23:15.898Z,240
2018-06-13T11:33:15.966Z,275
2018-06-13T11:43:15.899Z,305
2018-06-13T11:53:15.872Z,320
2018-06-13T12:03:15.915Z,320
2018-06-13T12:13:15.859Z,280
2018-06-13T12:23:15.852Z,335
2018-06-13T12:33:15.912Z,295
2018-06-13T12:43:15.953Z,200
2018-06-13T12:53:15.971Z,265
2018-06-13T13:03:15.940Z,335
2018-06-13T13:13:16.872Z,325
2018-06-13T13:23:15.908Z,275
2018-06-13T13:33:15.942Z,255
2018-06-13T13:43:15.930Z,305
2018-06-13T13:53:15.913Z,290
2018-06-13T14:03:15.940Z,230
2018-06-13T14:13:16.094Z,250
2018-06-13T14:23:15.996Z,265
2018-06-13T14:33:15.890Z,230
2018-06-13T14:43:15.902Z,185
2018-06-13T14:53:15.905Z,160
2018-06-13T15:03:16.020Z,230
2018-06-13T15:13:15.959Z,215
2018-06-13T15:23:15.909Z,170
2018-06-13T15:33:15.918Z,170
2018-06-13T15:43:15.832Z,205
2018-06-13T15:53:15.867Z,155
2018-06-13T16:03:15.839Z,155
2018-06-13T16:13:15.917Z,155
2018-06-13T16:23:15.892Z,125
2018-06-13T16:33:16.138Z,155
2018-06-13T16:43:15.985Z,155
2018-06-13T16:53:16.072Z,135
2018-06-13T17:03:15.972Z,100
2018-06-13T17:13:16.087Z,115
2018-06-13T17:23:15.992Z,105
2018-06-13T17:33:16.232Z,95
2018-06-13T17:43:16.000Z,80
2018-06-13T17:53:16.113Z,70
2018-06-13T18:03:16.094Z,70
2018-06-13T18:13:16.203Z,70
2018-06-13T18:23:16.154Z,55
2018-06-13T18:33:16.162Z,55
2018-06-13T18:43:16.503Z,50
2018-06-13T18:53:16.087Z,40
2018-06-13T19:03:16.129Z,30
2018-06-13T19:13:16.340Z,20
2018-06-13T19:23:16.933Z,15
2018-06-13T19:33:16.307Z,10
2018-06-13T19:43:16.297Z,5
2018-06-13T19:53:16.252Z,0
2018-06-13T20:03:16.252Z,0
2018-06-13T20:13:16.320Z,0
2018-06-13T20:23:16.299Z,0
2018-06-13T20:33:16.200Z,0
2018-06-13T20:43:16.589Z,0
2018-06-13T20:53:17.139Z,0
2018-06-13T21:03:16.160Z,0
2018-06-13T21:13:16.177Z,0
2018-06-13T21:23:16.176Z,0
2018-06-13T21:33:16.295Z,0
2018-06-13T21:44:46.545Z,0
2018-06-13T21:54:47.010Z,0
2018-06-13T22:04:49.862Z,0
2018-06-13T22:14:46.643Z,0
2018-06-13T22:24:47.042Z,0
2018-06-13T22:34:46.994Z,0
2018-06-13T22:44:47.957Z,0
2018-06-13T22:54:46.943Z,0
2018-06-13T23:04:46.732Z,0
2018-06-13T23:14:46.609Z,0
2018-06-13T23:24:46.582Z,0
2018-06-13T23:34:46.724Z,0
2018-06-13T23:44:46.557Z,0
2018-06-13T23:54:46.702Z,0
